createdAt,value
2023-03-26T04:00:36.812Z,0.00
2023-03-26T04:01:38.463Z,0.00
2023-03-26T04:02:37.881Z,0.00
2023-03-26T04:03:37.951Z,0.00
2023-03-26T04:04:37.844Z,0.00
2023-03-26T04:05:37.812Z,0.00
2023-03-26T04:06:37.747Z,0.00
2023-03-26T04:07:37.750Z,0.00
2023-03-26T04:08:37.746Z,0.00
2023-03-26T04:09:37.742Z,0.00
2023-03-26T04:10:37.719Z,0.00
2023-03-26T04:11:37.690Z,0.00
2023-03-26T04:12:37.698Z,0.00
2023-03-26T04:13:37.676Z,0.00
2023-03-26T04:14:37.682Z,0.00
2023-03-26T04:15:37.735Z,0.00
2023-03-26T04:16:37.887Z,0.00
2023-03-26T04:17:37.681Z,0.00
2023-03-26T04:18:37.622Z,0.00
2023-03-26T04:19:37.652Z,0.00
2023-03-26T04:20:38.140Z,0.00
2023-03-26T04:21:37.613Z,0.00
2023-03-26T04:22:37.601Z,0.00
2023-03-26T04:23:37.587Z,0.00
2023-03-26T04:24:37.554Z,0.00
2023-03-26T04:25:37.503Z,1.00
2023-03-26T04:26:37.587Z,0.00
2023-03-26T04:27:37.537Z,0.00
2023-03-26T04:28:38.239Z,1.00
2023-03-26T04:29:37.455Z,1.00
2023-03-26T04:30:37.437Z,1.00
2023-03-26T04:31:37.538Z,2.00
2023-03-26T04:32:37.446Z,2.00
2023-03-26T04:33:37.417Z,1.00
2023-03-26T04:34:37.474Z,1.00
2023-03-26T04:35:37.422Z,2.00
2023-03-26T04:36:37.391Z,1.00
2023-03-26T04:37:37.441Z,2.00
2023-03-26T04:38:37.360Z,6.00
2023-03-26T04:39:37.403Z,5.00
2023-03-26T04:40:37.363Z,5.00
2023-03-26T04:41:37.362Z,7.00
2023-03-26T04:42:37.323Z,7.00
2023-03-26T04:43:37.327Z,6.00
2023-03-26T04:44:37.300Z,6.00
2023-03-26T04:45:37.353Z,2.00
2023-03-26T04:46:37.307Z,4.00
2023-03-26T04:47:37.396Z,4.00
2023-03-26T04:48:37.307Z,5.00
2023-03-26T04:49:37.262Z,11.00
2023-03-26T04:50:37.264Z,12.00
2023-03-26T04:51:37.237Z,16.00
2023-03-26T04:52:37.252Z,24.00
2023-03-26T04:53:37.277Z,31.00
2023-03-26T04:54:37.244Z,38.00
2023-03-26T04:55:37.181Z,54.00
2023-03-26T04:56:37.217Z,69.00
2023-03-26T04:57:37.178Z,73.00
2023-03-26T04:58:37.173Z,75.00
2023-03-26T04:59:37.212Z,79.00
2023-03-26T05:00:37.166Z,84.00
2023-03-26T05:01:37.146Z,88.00
2023-03-26T05:02:37.128Z,89.00
2023-03-26T05:03:37.087Z,93.00
2023-03-26T05:04:37.127Z,95.00
2023-03-26T05:05:37.094Z,102.00
2023-03-26T05:06:37.049Z,105.00
2023-03-26T05:07:37.095Z,99.00
2023-03-26T05:08:37.048Z,110.00
2023-03-26T05:09:37.008Z,121.00
2023-03-26T05:10:37.014Z,132.00
2023-03-26T05:11:37.018Z,151.00
2023-03-26T05:12:37.014Z,167.00
2023-03-26T05:13:36.975Z,170.00
2023-03-26T05:14:36.982Z,168.00
2023-03-26T05:15:36.985Z,167.00
2023-03-26T05:16:36.977Z,152.00
2023-03-26T05:17:36.964Z,141.00
2023-03-26T05:18:36.969Z,167.00
2023-03-26T05:19:36.956Z,205.00
2023-03-26T05:20:37.010Z,261.00
2023-03-26T05:21:36.900Z,299.00
2023-03-26T05:22:38.151Z,297.00
2023-03-26T05:23:36.886Z,323.00
2023-03-26T05:24:36.880Z,339.00
2023-03-26T05:25:36.881Z,351.00
2023-03-26T05:26:36.932Z,359.00
2023-03-26T05:27:36.848Z,380.00
2023-03-26T05:28:36.841Z,340.00
2023-03-26T05:29:36.812Z,312.00
2023-03-26T05:30:36.831Z,271.00
2023-03-26T05:31:36.836Z,288.00
2023-03-26T05:32:36.864Z,264.00
2023-03-26T05:33:36.914Z,273.00
2023-03-26T05:34:36.767Z,327.00
2023-03-26T05:35:36.805Z,329.00
2023-03-26T05:36:36.760Z,301.00
2023-03-26T05:37:36.774Z,320.00
2023-03-26T05:38:36.795Z,347.00
2023-03-26T05:39:36.694Z,354.00
2023-03-26T05:40:36.764Z,352.00
2023-03-26T05:41:36.688Z,352.00
2023-03-26T05:42:36.694Z,366.00
2023-03-26T05:43:37.293Z,467.00
2023-03-26T05:44:36.688Z,487.00
2023-03-26T05:45:36.719Z,561.00
2023-03-26T05:46:36.759Z,522.00
2023-03-26T05:47:36.673Z,543.00
2023-03-26T05:48:36.606Z,646.00
2023-03-26T05:49:36.611Z,676.00
2023-03-26T05:50:36.607Z,671.00
2023-03-26T05:51:36.604Z,635.00
2023-03-26T05:52:36.566Z,558.00
2023-03-26T05:53:36.624Z,481.00
2023-03-26T05:54:36.543Z,462.00
2023-03-26T05:55:36.539Z,470.00
2023-03-26T05:56:36.572Z,480.00
2023-03-26T05:57:36.545Z,508.00
2023-03-26T05:58:36.533Z,579.00
2023-03-26T05:59:36.561Z,569.00
2023-03-26T06:00:36.489Z,578.00
2023-03-26T06:01:36.464Z,547.00
2023-03-26T06:02:36.513Z,513.00
2023-03-26T06:03:36.561Z,573.00
2023-03-26T06:04:36.576Z,667.00
2023-03-26T06:05:36.479Z,711.00
2023-03-26T06:06:36.432Z,660.00
2023-03-26T06:07:36.409Z,534.00
2023-03-26T06:08:36.424Z,522.00
2023-03-26T06:09:36.422Z,537.00
2023-03-26T06:10:36.399Z,477.00
2023-03-26T06:11:36.443Z,550.00
2023-03-26T06:12:36.349Z,576.00
2023-03-26T06:13:36.339Z,529.00
2023-03-26T06:14:36.338Z,568.00
2023-03-26T06:15:36.363Z,523.00
2023-03-26T06:16:36.444Z,459.00
2023-03-26T06:17:36.425Z,483.00
2023-03-26T06:18:36.393Z,467.00
2023-03-26T06:19:36.282Z,645.00
2023-03-26T06:20:36.260Z,728.00
2023-03-26T06:21:36.297Z,735.00
2023-03-26T06:22:36.318Z,739.00
2023-03-26T06:23:36.222Z,730.00
2023-03-26T06:24:36.265Z,665.00
2023-03-26T06:25:36.234Z,836.00
2023-03-26T06:26:36.225Z,1172.00
2023-03-26T06:27:36.182Z,1167.00
2023-03-26T06:28:36.191Z,1088.00
2023-03-26T06:29:36.219Z,1064.00
2023-03-26T06:30:36.207Z,1141.00
2023-03-26T06:31:36.221Z,1132.00
2023-03-26T06:32:36.211Z,975.00
2023-03-26T06:33:36.142Z,1753.00
2023-03-26T06:34:36.112Z,1407.00
2023-03-26T06:35:36.160Z,1338.00
2023-03-26T06:36:36.147Z,1481.00
2023-03-26T06:37:36.146Z,1403.00
2023-03-26T06:38:36.077Z,1165.00
2023-03-26T06:39:36.158Z,961.00
2023-03-26T06:40:36.049Z,907.00
2023-03-26T06:41:36.073Z,1183.00
2023-03-26T06:43:08.989Z,1410.00
2023-03-26T06:43:36.059Z,1503.00
2023-03-26T06:44:36.012Z,1335.00
2023-03-26T06:45:36.018Z,1399.00
2023-03-26T06:46:36.069Z,1294.00
2023-03-26T06:47:35.973Z,1349.00
2023-03-26T06:48:36.086Z,1320.00
2023-03-26T06:49:36.018Z,1124.00
2023-03-26T06:50:35.997Z,1221.00
2023-03-26T06:51:35.923Z,1437.00
2023-03-26T06:52:35.921Z,1458.00
2023-03-26T06:53:35.918Z,1292.00
2023-03-26T06:54:35.932Z,1451.00
2023-03-26T06:55:35.928Z,1481.00
2023-03-26T06:56:35.936Z,1531.00
2023-03-26T06:57:35.874Z,1593.00
2023-03-26T06:58:35.868Z,1620.00
2023-03-26T06:59:35.860Z,1573.00
2023-03-26T07:00:35.879Z,1574.00
2023-03-26T07:01:35.922Z,1579.00
2023-03-26T07:02:35.893Z,1599.00
2023-03-26T07:03:35.834Z,1606.00
2023-03-26T07:04:35.867Z,1613.00
2023-03-26T07:05:35.816Z,1718.00
2023-03-26T07:06:35.791Z,1764.00
2023-03-26T07:07:36.281Z,1798.00
2023-03-26T07:08:35.987Z,1848.00
2023-03-26T07:09:35.750Z,1930.00
2023-03-26T07:10:35.775Z,1991.00
2023-03-26T07:11:35.818Z,1890.00
2023-03-26T07:12:35.745Z,2261.00
2023-03-26T07:13:35.709Z,2477.00
2023-03-26T07:14:35.722Z,2236.00
2023-03-26T07:15:35.697Z,2388.00
2023-03-26T07:16:35.817Z,2386.00
2023-03-26T07:17:35.713Z,2384.00
2023-03-26T07:18:35.674Z,2327.00
2023-03-26T07:19:35.688Z,1820.00
2023-03-26T07:20:35.646Z,1934.00
2023-03-26T07:21:35.648Z,4408.00
2023-03-26T07:22:36.102Z,2406.00
2023-03-26T07:23:35.569Z,2325.00
2023-03-26T07:24:35.608Z,3384.00
2023-03-26T07:25:35.685Z,2542.00
2023-03-26T07:26:35.567Z,2151.00
2023-03-26T07:27:35.565Z,2083.00
2023-03-26T07:28:35.609Z,2215.00
2023-03-26T07:29:35.523Z,2173.00
2023-03-26T07:30:35.515Z,2531.00
2023-03-26T07:31:35.581Z,2523.00
2023-03-26T07:32:35.516Z,2660.00
2023-03-26T07:33:35.519Z,2859.00
2023-03-26T07:34:35.514Z,2386.00
2023-03-26T07:35:35.487Z,2255.00
2023-03-26T07:36:35.450Z,2370.00
2023-03-26T07:37:35.524Z,1989.00
2023-03-26T07:38:35.467Z,1980.00
2023-03-26T07:39:35.506Z,1946.00
2023-03-26T07:40:35.496Z,1896.00
2023-03-26T07:41:35.396Z,1819.00
2023-03-26T07:42:35.373Z,1851.00
2023-03-26T07:43:35.350Z,1787.00
2023-03-26T07:44:35.905Z,1796.00
2023-03-26T07:45:35.391Z,1827.00
2023-03-26T07:46:35.369Z,1738.00
2023-03-26T07:47:35.351Z,1918.00
2023-03-26T07:48:35.313Z,1945.00
2023-03-26T07:49:35.311Z,1880.00
2023-03-26T07:50:35.308Z,1891.00
2023-03-26T07:51:35.323Z,1930.00
2023-03-26T07:52:35.301Z,1825.00
2023-03-26T07:53:35.300Z,1761.00
2023-03-26T07:54:35.311Z,1702.00
2023-03-26T07:55:35.306Z,1571.00
2023-03-26T07:56:35.293Z,1468.00
2023-03-26T07:57:35.267Z,1635.00
2023-03-26T07:58:35.274Z,1666.00
2023-03-26T07:59:35.228Z,1725.00
2023-03-26T08:00:35.355Z,1732.00
2023-03-26T08:01:35.167Z,1847.00
2023-03-26T08:02:35.217Z,1927.00
2023-03-26T08:03:35.301Z,1930.00
2023-03-26T08:04:35.236Z,2060.00
2023-03-26T08:05:35.190Z,2003.00
2023-03-26T08:06:35.178Z,2044.00
2023-03-26T08:07:35.178Z,1915.00
2023-03-26T08:08:35.091Z,1821.00
2023-03-26T08:09:35.111Z,1643.00
2023-03-26T08:10:35.088Z,1388.00
2023-03-26T08:11:35.097Z,1326.00
2023-03-26T08:12:35.140Z,1325.00
2023-03-26T08:13:35.037Z,1418.00
2023-03-26T08:14:35.045Z,1443.00
2023-03-26T08:15:35.072Z,1483.00
2023-03-26T08:16:35.372Z,1504.00
2023-03-26T08:17:35.176Z,1457.00
2023-03-26T08:18:36.308Z,1425.00
2023-03-26T08:19:35.111Z,1530.00
2023-03-26T08:20:35.061Z,1502.00
2023-03-26T08:21:35.142Z,1421.00
2023-03-26T08:22:35.045Z,1684.00
2023-03-26T08:23:34.966Z,1861.00
2023-03-26T08:24:35.025Z,1950.00
2023-03-26T08:25:36.654Z,2049.00
2023-03-26T08:26:35.031Z,2140.00
2023-03-26T08:27:34.989Z,2270.00
2023-03-26T08:28:34.990Z,2346.00
2023-03-26T08:29:34.993Z,2440.00
2023-03-26T08:30:34.892Z,2460.00
2023-03-26T08:31:35.069Z,2482.00
2023-03-26T08:32:34.982Z,2546.00
2023-03-26T08:33:37.060Z,2667.00
2023-03-26T08:34:34.859Z,2794.00
2023-03-26T08:35:34.890Z,2891.00
2023-03-26T08:36:34.826Z,2704.00
2023-03-26T08:37:34.835Z,2951.00
2023-03-26T08:38:34.859Z,2917.00
2023-03-26T08:39:34.779Z,2492.00
2023-03-26T08:40:34.760Z,2613.00
2023-03-26T08:41:34.870Z,2885.00
2023-03-26T08:42:34.776Z,3353.00
2023-03-26T08:43:34.777Z,3060.00
2023-03-26T08:44:34.771Z,2910.00
2023-03-26T08:45:34.762Z,2764.00
2023-03-26T08:46:34.739Z,2844.00
2023-03-26T08:47:34.707Z,2765.00
2023-03-26T08:48:34.711Z,2990.00
2023-03-26T08:49:34.673Z,3081.00
2023-03-26T08:50:34.703Z,3224.00
2023-03-26T08:51:34.688Z,3253.00
2023-03-26T08:52:34.617Z,3264.00
2023-03-26T08:53:34.628Z,3232.00
2023-03-26T08:54:34.679Z,3389.00
2023-03-26T08:55:34.615Z,3408.00
2023-03-26T08:56:34.619Z,3408.00
2023-03-26T08:57:34.560Z,3451.00
2023-03-26T08:58:34.673Z,3438.00
2023-03-26T08:59:34.570Z,3585.00
2023-03-26T09:00:34.532Z,3695.00
2023-03-26T09:01:34.618Z,3234.00
2023-03-26T09:02:34.546Z,3319.00
2023-03-26T09:03:34.549Z,3502.00
2023-03-26T09:04:34.472Z,3319.00
2023-03-26T09:05:34.601Z,3676.00
2023-03-26T09:06:34.464Z,3707.00
2023-03-26T09:07:34.464Z,3521.00
2023-03-26T09:08:34.477Z,3234.00
2023-03-26T09:09:34.488Z,2884.00
2023-03-26T09:10:34.473Z,2385.00
2023-03-26T09:11:34.461Z,2165.00
2023-03-26T09:12:34.529Z,2120.00
2023-03-26T09:13:34.414Z,2220.00
2023-03-26T09:14:34.407Z,2445.00
2023-03-26T09:15:34.383Z,2508.00
2023-03-26T09:16:34.412Z,2494.00
2023-03-26T09:17:34.346Z,2604.00
2023-03-26T09:18:34.362Z,2449.00
2023-03-26T09:19:34.321Z,2761.00
2023-03-26T09:20:34.320Z,2928.00
2023-03-26T09:21:34.342Z,3065.00
2023-03-26T09:22:34.339Z,3524.00
2023-03-26T09:23:34.331Z,3648.00
2023-03-26T09:24:34.294Z,3827.00
2023-03-26T09:25:34.278Z,3769.00
2023-03-26T09:26:34.260Z,3789.00
2023-03-26T09:27:34.656Z,3912.00
2023-03-26T09:28:34.258Z,4025.00
2023-03-26T09:29:34.210Z,4091.00
2023-03-26T09:30:34.229Z,4092.00
2023-03-26T09:31:34.225Z,3989.00
2023-03-26T09:32:34.210Z,4153.00
2023-03-26T09:33:34.307Z,4106.00
2023-03-26T09:34:34.155Z,4093.00
2023-03-26T09:35:34.215Z,4177.00
2023-03-26T09:36:34.150Z,4132.00
2023-03-26T09:37:34.132Z,4064.00
2023-03-26T09:38:34.120Z,4103.00
2023-03-26T09:39:34.173Z,4035.00
2023-03-26T09:40:34.115Z,3951.00
2023-03-26T09:41:34.085Z,3993.00
2023-03-26T09:42:34.094Z,4078.00
2023-03-26T09:43:34.067Z,4150.00
2023-03-26T09:44:34.056Z,4116.00
2023-03-26T09:45:34.072Z,3972.00
2023-03-26T09:46:34.032Z,3834.00
2023-03-26T09:47:34.048Z,3714.00
2023-03-26T09:48:34.010Z,3727.00
2023-03-26T09:49:33.999Z,3785.00
2023-03-26T09:50:34.006Z,3909.00
2023-03-26T09:51:33.994Z,3955.00
2023-03-26T09:52:33.990Z,4002.00
2023-03-26T09:53:33.976Z,4012.00
2023-03-26T09:54:33.980Z,3861.00
2023-03-26T09:55:33.937Z,3774.00
2023-03-26T09:56:33.963Z,3869.00
2023-03-26T09:57:33.941Z,3532.00
2023-03-26T09:58:33.952Z,3718.00
2023-03-26T09:59:33.975Z,3939.00
2023-03-26T10:00:33.888Z,4076.00
2023-03-26T10:01:33.933Z,4302.00
2023-03-26T10:02:45.995Z,4201.00
2023-03-26T10:03:33.904Z,4535.00
2023-03-26T10:04:33.862Z,4792.00
2023-03-26T10:05:33.853Z,4907.00
2023-03-26T10:06:33.813Z,4829.00
2023-03-26T10:07:33.876Z,4798.00
2023-03-26T10:08:33.807Z,4720.00
2023-03-26T10:09:33.785Z,4803.00
2023-03-26T10:10:33.786Z,4945.00
2023-03-26T10:11:33.794Z,5056.00
2023-03-26T10:12:33.789Z,5026.00
2023-03-26T10:13:33.780Z,4852.00
2023-03-26T10:14:33.714Z,4473.00
2023-03-26T10:15:33.730Z,4079.00
2023-03-26T10:16:33.798Z,3568.00
2023-03-26T10:17:33.809Z,2940.00
2023-03-26T10:18:33.690Z,2952.00
2023-03-26T10:19:33.678Z,3243.00
2023-03-26T10:20:33.705Z,3051.00
2023-03-26T10:21:33.650Z,3175.00
2023-03-26T10:22:33.651Z,3469.00
2023-03-26T10:23:33.658Z,3353.00
2023-03-26T10:24:33.625Z,3405.00
2023-03-26T10:25:33.608Z,3454.00
2023-03-26T10:26:33.764Z,3578.00
2023-03-26T10:27:33.603Z,3642.00
2023-03-26T10:28:33.589Z,3586.00
2023-03-26T10:29:33.623Z,3422.00
2023-03-26T10:30:33.582Z,3409.00
2023-03-26T10:31:33.564Z,3400.00
2023-03-26T10:32:33.609Z,3453.00
2023-03-26T10:33:33.526Z,3326.00
2023-03-26T10:34:33.535Z,3571.00
2023-03-26T10:35:33.631Z,3746.00
2023-03-26T10:36:33.545Z,3731.00
2023-03-26T10:37:33.499Z,3486.00
2023-03-26T10:38:33.467Z,3460.00
2023-03-26T10:39:38.062Z,3376.00
2023-03-26T10:40:33.465Z,3413.00
2023-03-26T10:41:33.453Z,3491.00
2023-03-26T10:42:33.426Z,3115.00
2023-03-26T10:43:33.432Z,2902.00
2023-03-26T10:44:33.390Z,2541.00
2023-03-26T10:45:33.391Z,2675.00
2023-03-26T10:46:33.433Z,3259.00
2023-03-26T10:47:33.386Z,3785.00
2023-03-26T10:48:33.361Z,3641.00
2023-03-26T10:49:33.374Z,3487.00
2023-03-26T10:50:33.339Z,3406.00
2023-03-26T10:51:33.344Z,3296.00
2023-03-26T10:52:33.307Z,3202.00
2023-03-26T10:53:33.345Z,3276.00
2023-03-26T10:54:33.338Z,3208.00
2023-03-26T10:55:33.304Z,2546.00
2023-03-26T10:56:33.293Z,2051.00
2023-03-26T10:57:33.299Z,1924.00
2023-03-26T10:58:48.398Z,2344.00
2023-03-26T10:59:33.249Z,2655.00
2023-03-26T11:00:33.251Z,3075.00
2023-03-26T11:01:33.321Z,2749.00
2023-03-26T11:02:33.249Z,3092.00
2023-03-26T11:03:33.225Z,3419.00
2023-03-26T11:04:33.184Z,3966.00
2023-03-26T11:05:33.229Z,4375.00
2023-03-26T11:06:33.167Z,4936.00
2023-03-26T11:07:33.148Z,5122.00
2023-03-26T11:08:33.159Z,5672.00
2023-03-26T11:09:33.207Z,4965.00
2023-03-26T11:10:33.112Z,4929.00
2023-03-26T11:11:33.111Z,4803.00
2023-03-26T11:12:33.094Z,4812.00
2023-03-26T11:13:33.118Z,4662.00
2023-03-26T11:14:35.227Z,4675.00
2023-03-26T11:15:33.091Z,6965.00
2023-03-26T11:16:33.048Z,6437.00
2023-03-26T11:17:40.734Z,6525.00
2023-03-26T11:18:33.034Z,5840.00
2023-03-26T11:19:33.079Z,2414.00
2023-03-26T11:20:33.031Z,13253.00
2023-03-26T11:21:33.024Z,5583.00
2023-03-26T11:22:33.008Z,5287.00
2023-03-26T11:23:33.001Z,4156.00
2023-03-26T11:24:32.974Z,5441.00
2023-03-26T11:25:32.968Z,4388.00
2023-03-26T11:26:32.961Z,4308.00
2023-03-26T11:27:32.951Z,3706.00
2023-03-26T11:28:32.931Z,3852.00
2023-03-26T11:29:33.609Z,3773.00
2023-03-26T11:30:33.507Z,3462.00
2023-03-26T11:31:32.943Z,3338.00
2023-03-26T11:32:32.888Z,3208.00
2023-03-26T11:33:33.059Z,3198.00
2023-03-26T11:34:32.871Z,2924.00
2023-03-26T11:35:40.667Z,2703.00
2023-03-26T11:36:32.866Z,2703.00
2023-03-26T11:37:32.825Z,2814.00
2023-03-26T11:38:32.855Z,3312.00
2023-03-26T11:39:32.824Z,3353.00
2023-03-26T11:40:32.811Z,3839.00
2023-03-26T11:41:32.849Z,4335.00
2023-03-26T11:42:33.016Z,4831.00
2023-03-26T11:43:32.839Z,5143.00
2023-03-26T11:44:32.747Z,5148.00
2023-03-26T11:45:32.780Z,5074.00
2023-03-26T11:46:33.806Z,5326.00
2023-03-26T11:47:32.750Z,5479.00
2023-03-26T11:48:32.721Z,5681.00
2023-03-26T11:49:32.698Z,5423.00
2023-03-26T11:50:32.736Z,4656.00
2023-03-26T11:51:32.700Z,4596.00
2023-03-26T11:52:32.673Z,4351.00
2023-03-26T11:53:32.678Z,3987.00
2023-03-26T11:54:32.675Z,3347.00
2023-03-26T11:55:32.645Z,3143.00
2023-03-26T11:56:32.701Z,3074.00
2023-03-26T11:57:32.683Z,2787.00
2023-03-26T11:58:32.593Z,2972.00
2023-03-26T11:59:33.846Z,2895.00
2023-03-26T12:00:32.576Z,2804.00
2023-03-26T12:01:32.580Z,2981.00
2023-03-26T12:02:33.006Z,3180.00
2023-03-26T12:03:32.535Z,3486.00
2023-03-26T12:04:32.645Z,3659.00
2023-03-26T12:05:32.606Z,4173.00
2023-03-26T12:06:32.545Z,4271.00
2023-03-26T12:07:32.494Z,4408.00
2023-03-26T12:08:32.572Z,4609.00
2023-03-26T12:09:32.479Z,4841.00
2023-03-26T12:10:32.485Z,4821.00
2023-03-26T12:11:34.666Z,4704.00
2023-03-26T12:12:32.442Z,4875.00
2023-03-26T12:13:32.426Z,5198.00
2023-03-26T12:14:32.437Z,5365.00
2023-03-26T12:15:32.479Z,5087.00
2023-03-26T12:16:32.516Z,4863.00
2023-03-26T12:17:32.432Z,4820.00
2023-03-26T12:18:32.374Z,5190.00
2023-03-26T12:19:32.365Z,5850.00
2023-03-26T12:20:32.422Z,5523.00
2023-03-26T12:21:32.341Z,5003.00
2023-03-26T12:22:32.355Z,4657.00
2023-03-26T12:23:32.317Z,4433.00
2023-03-26T12:24:32.329Z,4497.00
2023-03-26T12:25:32.323Z,4949.00
2023-03-26T12:26:32.339Z,5285.00
2023-03-26T12:27:32.278Z,6290.00
2023-03-26T12:28:32.270Z,7302.00
2023-03-26T12:29:32.280Z,6938.00
2023-03-26T12:30:32.263Z,7176.00
2023-03-26T12:31:32.260Z,7905.00
2023-03-26T12:32:43.451Z,8484.00
2023-03-26T12:33:32.285Z,6929.00
2023-03-26T12:34:32.239Z,12114.00
2023-03-26T12:35:32.233Z,9232.00
2023-03-26T12:36:32.186Z,8526.00
2023-03-26T12:37:32.182Z,9302.00
2023-03-26T12:38:32.190Z,8235.00
2023-03-26T12:40:09.584Z,7760.00
2023-03-26T12:40:32.145Z,6980.00
2023-03-26T12:44:51.448Z,9308.00
2023-03-26T12:45:02.421Z,6843.00
2023-03-26T12:45:07.848Z,7703.00
2023-03-26T12:47:56.432Z,11803.00
2023-03-26T12:48:07.362Z,3277.00
2023-03-26T12:48:13.706Z,20382.00
2023-03-26T12:49:13.055Z,14249.00
2023-03-26T12:50:12.860Z,15033.00
2023-03-26T12:51:12.834Z,15183.00
2023-03-26T12:52:12.840Z,16492.00
2023-03-26T12:53:12.883Z,16400.00
2023-03-26T12:54:12.801Z,11137.00
2023-03-26T12:55:12.821Z,5082.00
2023-03-26T12:56:12.795Z,13074.00
2023-03-26T12:57:13.510Z,11864.00
2023-03-26T12:58:13.299Z,11639.00
2023-03-26T12:59:12.726Z,6957.00
2023-03-26T13:00:12.732Z,10552.00
2023-03-26T13:01:12.784Z,12874.00
2023-03-26T13:02:12.763Z,8670.00
2023-03-26T13:03:12.836Z,6006.00
2023-03-26T13:04:12.718Z,5229.00
2023-03-26T13:05:12.709Z,5435.00
2023-03-26T13:06:12.671Z,5108.00
2023-03-26T13:07:12.668Z,4993.00
2023-03-26T13:08:12.657Z,5032.00
2023-03-26T13:09:12.724Z,4701.00
2023-03-26T13:10:12.645Z,4524.00
2023-03-26T13:11:12.636Z,4937.00
2023-03-26T13:12:12.616Z,4244.00
2023-03-26T13:13:12.591Z,4362.00
2023-03-26T13:14:12.582Z,2636.00
2023-03-26T13:15:12.578Z,13776.00
2023-03-26T13:16:12.579Z,9413.00
2023-03-26T13:17:12.587Z,5969.00
2023-03-26T13:18:12.554Z,6267.00
2023-03-26T13:19:12.539Z,4649.00
2023-03-26T13:20:12.654Z,3545.00
2023-03-26T13:21:12.974Z,3066.00
2023-03-26T13:22:12.496Z,3086.00
2023-03-26T13:23:12.480Z,2999.00
2023-03-26T13:24:13.044Z,2853.00
2023-03-26T13:25:12.461Z,2957.00
2023-03-26T13:26:12.459Z,3422.00
2023-03-26T13:27:12.473Z,2988.00
2023-03-26T13:28:12.460Z,6346.00
2023-03-26T13:29:12.431Z,4779.00
2023-03-26T13:30:12.428Z,5244.00
2023-03-26T13:31:12.479Z,5674.00
2023-03-26T13:32:12.391Z,4844.00
2023-03-26T13:33:12.396Z,3947.00
2023-03-26T13:34:12.382Z,3486.00
2023-03-26T13:35:12.397Z,3510.00
2023-03-26T13:36:23.248Z,3940.00
2023-03-26T13:37:12.411Z,4107.00
2023-03-26T13:38:12.316Z,3688.00
2023-03-26T13:39:12.320Z,3757.00
2023-03-26T13:40:12.347Z,4134.00
2023-03-26T13:41:12.325Z,4226.00
2023-03-26T13:42:12.282Z,4237.00
2023-03-26T13:43:12.271Z,3966.00
2023-03-26T13:44:12.260Z,3957.00
2023-03-26T13:45:12.248Z,2895.00
2023-03-26T13:46:12.265Z,10196.00
2023-03-26T13:47:12.225Z,5444.00
2023-03-26T13:48:12.206Z,8459.00
2023-03-26T13:49:12.201Z,2657.00
2023-03-26T13:50:12.235Z,15126.00
2023-03-26T13:51:12.196Z,9820.00
2023-03-26T13:52:12.184Z,8254.00
2023-03-26T13:53:12.202Z,3980.00
2023-03-26T13:54:12.149Z,21891.00
2023-03-26T13:55:12.145Z,3583.00
2023-03-26T13:56:12.157Z,25511.00
2023-03-26T13:57:12.142Z,3988.00
2023-03-26T13:58:12.151Z,15993.00
2023-03-26T13:59:12.114Z,25114.00
2023-03-26T14:00:12.101Z,21690.00
2023-03-26T14:01:12.139Z,12694.00
2023-03-26T14:02:12.068Z,19238.00
2023-03-26T14:03:12.065Z,8282.00
2023-03-26T14:04:12.090Z,4134.00
2023-03-26T14:05:12.153Z,23707.00
2023-03-26T14:06:12.033Z,28856.00
2023-03-26T14:07:12.057Z,22895.00
2023-03-26T14:08:11.994Z,30527.00
2023-03-26T14:09:12.016Z,21656.00
2023-03-26T14:10:11.975Z,26907.00
2023-03-26T14:11:11.959Z,21459.00
2023-03-26T14:12:20.992Z,3623.00
2023-03-26T14:13:11.943Z,12529.00
2023-03-26T14:14:11.930Z,25045.00
2023-03-26T14:15:11.939Z,17352.00
2023-03-26T14:16:11.948Z,11665.00
2023-03-26T14:17:11.930Z,21076.00
2023-03-26T14:18:11.885Z,23868.00
2023-03-26T14:19:11.900Z,21162.00
2023-03-26T14:20:11.896Z,18722.00
2023-03-26T14:21:11.857Z,24875.00
2023-03-26T14:22:11.864Z,30389.00
2023-03-26T14:23:11.864Z,26842.00
2023-03-26T14:24:11.854Z,6238.00
2023-03-26T14:25:11.844Z,23455.00
2023-03-26T14:26:11.804Z,35792.00
2023-03-26T14:27:11.794Z,30276.00
2023-03-26T14:28:11.826Z,33537.00
2023-03-26T14:29:11.782Z,27612.00
2023-03-26T14:30:11.743Z,27150.00
2023-03-26T14:31:11.820Z,18980.00
2023-03-26T14:32:11.763Z,7592.00
2023-03-26T14:33:11.747Z,17347.00
2023-03-26T14:34:11.715Z,26076.00
2023-03-26T14:35:11.736Z,20897.00
2023-03-26T14:36:11.711Z,21013.00
2023-03-26T14:37:11.695Z,25733.00
2023-03-26T14:38:11.688Z,22596.00
2023-03-26T14:39:11.646Z,10552.00
2023-03-26T14:40:11.647Z,11238.00
2023-03-26T14:41:11.628Z,18953.00
2023-03-26T14:42:11.679Z,23170.00
2023-03-26T14:43:11.991Z,25331.00
2023-03-26T14:44:11.629Z,21092.00
2023-03-26T14:45:11.621Z,24297.00
2023-03-26T14:46:11.604Z,27022.00
2023-03-26T14:47:14.526Z,25516.00
2023-03-26T14:48:11.754Z,8698.00
2023-03-26T14:49:11.551Z,3385.00
2023-03-26T14:50:11.540Z,21815.00
2023-03-26T14:51:11.557Z,4436.00
2023-03-26T14:52:11.770Z,31808.00
2023-03-26T14:53:11.510Z,24432.00
2023-03-26T14:54:11.530Z,10949.00
2023-03-26T14:55:11.480Z,9841.00
2023-03-26T14:56:12.452Z,12031.00
2023-03-26T14:57:11.571Z,3924.00
2023-03-26T14:58:11.482Z,12975.00
2023-03-26T14:59:12.398Z,13980.00
2023-03-26T15:00:11.451Z,2925.00
2023-03-26T15:01:11.502Z,10057.00
2023-03-26T15:02:11.508Z,8627.00
2023-03-26T15:03:11.466Z,16399.00
2023-03-26T15:04:11.415Z,17763.00
2023-03-26T15:05:11.449Z,15640.00
2023-03-26T15:06:11.369Z,15788.00
2023-03-26T15:07:11.405Z,16357.00
2023-03-26T15:08:11.360Z,18369.00
2023-03-26T15:09:11.353Z,19824.00
2023-03-26T15:10:11.364Z,4580.00
2023-03-26T15:11:11.298Z,17553.00
2023-03-26T15:12:12.430Z,3113.00
2023-03-26T15:13:11.321Z,15969.00
2023-03-26T15:14:11.329Z,2518.00
2023-03-26T15:15:11.287Z,5197.00
2023-03-26T15:16:11.297Z,16560.00
2023-03-26T15:17:11.249Z,8294.00
2023-03-26T15:18:11.241Z,3224.00
2023-03-26T15:19:11.234Z,13779.00
2023-03-26T15:20:11.263Z,12672.00
2023-03-26T15:21:11.255Z,10856.00
2023-03-26T15:22:11.197Z,10589.00
2023-03-26T15:23:11.243Z,10312.00
2023-03-26T15:24:11.202Z,12585.00
2023-03-26T15:25:11.157Z,10511.00
2023-03-26T15:26:11.168Z,8639.00
2023-03-26T15:27:11.140Z,12511.00
2023-03-26T15:28:11.180Z,6383.00
2023-03-26T15:29:11.130Z,8887.00
2023-03-26T15:30:11.119Z,6261.00
2023-03-26T15:31:11.113Z,6841.00
2023-03-26T15:32:11.077Z,7704.00
2023-03-26T15:33:11.060Z,6676.00
2023-03-26T15:34:11.110Z,7794.00
2023-03-26T15:35:11.058Z,3267.00
2023-03-26T15:36:11.050Z,7168.00
2023-03-26T15:37:11.030Z,7276.00
2023-03-26T15:38:11.021Z,4863.00
2023-03-26T15:39:11.019Z,6623.00
2023-03-26T15:40:11.003Z,9441.00
2023-03-26T15:41:11.012Z,7271.00
2023-03-26T15:42:10.989Z,5430.00
2023-03-26T15:43:10.950Z,5004.00
2023-03-26T15:44:24.813Z,4724.00
2023-03-26T15:45:10.942Z,4488.00
2023-03-26T15:46:11.228Z,4052.00
2023-03-26T15:47:10.913Z,6940.00
2023-03-26T15:48:11.620Z,7290.00
2023-03-26T15:49:10.889Z,5529.00
2023-03-26T15:50:10.914Z,6557.00
2023-03-26T15:51:10.866Z,5846.00
2023-03-26T15:52:10.970Z,5655.00
2023-03-26T15:53:10.846Z,4788.00
2023-03-26T15:54:10.842Z,4242.00
2023-03-26T15:55:11.308Z,4089.00
2023-03-26T15:56:10.872Z,3989.00
2023-03-26T15:57:10.856Z,4010.00
2023-03-26T15:58:10.790Z,3779.00
2023-03-26T15:59:10.835Z,3719.00
2023-03-26T16:00:10.783Z,3534.00
2023-03-26T16:01:10.812Z,4007.00
2023-03-26T16:02:10.745Z,2825.00
2023-03-26T16:03:10.783Z,3416.00
2023-03-26T16:04:10.752Z,3583.00
2023-03-26T16:05:10.740Z,3471.00
2023-03-26T16:06:10.716Z,3080.00
2023-03-26T16:07:10.712Z,2687.00
2023-03-26T16:08:10.681Z,2386.00
2023-03-26T16:09:10.663Z,2101.00
2023-03-26T16:10:10.729Z,1976.00
2023-03-26T16:11:10.648Z,1999.00
2023-03-26T16:12:10.622Z,1956.00
2023-03-26T16:13:10.633Z,1909.00